Terminal Aerodrome Forecast
Issued by NWS

Home | Current Version | Previous Version | Graphics & Text | Print | Product List | Glossary On
Versions: 1 2 3 4 5 6 7 8 9 10 11 12 13 14 15 16 17
000
FTUS43 KIWX 202300
TAFSBN
TAF
KSBN 202331Z 2100/2124 22008KT P6SM VCSH SCT040 BKN080
     FM211000 27010KT P6SM SCT008 BKN015
      TEMPO 2110/2114 5SM BR BKN008
     FM211600 31015G22KT P6SM BKN035=

USA.gov is the U.S. government's official web portal to all federal, state and local government web resources and services.